sensor_id;sensor_type;location;lat;lon;timestamp;P1;durP1;ratioP1;P2;durP2;ratioP2
9461;SDS011;4769;42.660;23.262;2023-03-05T00:01:10;28.70;;;18.77;;
9461;SDS011;4769;42.660;23.262;2023-03-05T00:03:37;25.93;;;17.73;;
9461;SDS011;4769;42.660;23.262;2023-03-05T00:06:04;33.37;;;20.30;;
9461;SDS011;4769;42.660;23.262;2023-03-05T00:08:30;27.33;;;18.90;;
9461;SDS011;4769;42.660;23.262;2023-03-05T00:11:00;29.67;;;19.93;;
9461;SDS011;4769;42.660;23.262;2023-03-05T00:13:27;28.53;;;18.63;;
9461;SDS011;4769;42.660;23.262;2023-03-05T00:15:53;25.83;;;19.57;;
9461;SDS011;4769;42.660;23.262;2023-03-05T00:18:19;24.07;;;18.90;;
9461;SDS011;4769;42.660;23.262;2023-03-05T00:20:45;26.90;;;19.27;;
9461;SDS011;4769;42.660;23.262;2023-03-05T00:23:12;27.37;;;21.37;;
9461;SDS011;4769;42.660;23.262;2023-03-05T00:25:38;31.13;;;21.33;;
9461;SDS011;4769;42.660;23.262;2023-03-05T00:28:07;25.20;;;18.83;;
9461;SDS011;4769;42.660;23.262;2023-03-05T00:30:34;23.27;;;18.37;;
9461;SDS011;4769;42.660;23.262;2023-03-05T00:32:59;25.77;;;18.70;;
9461;SDS011;4769;42.660;23.262;2023-03-05T00:35:25;24.07;;;18.00;;
9461;SDS011;4769;42.660;23.262;2023-03-05T00:37:52;29.97;;;19.37;;
9461;SDS011;4769;42.660;23.262;2023-03-05T00:40:18;24.70;;;16.60;;
9461;SDS011;4769;42.660;23.262;2023-03-05T00:42:44;28.83;;;17.40;;
9461;SDS011;4769;42.660;23.262;2023-03-05T00:45:19;27.33;;;17.87;;
9461;SDS011;4769;42.660;23.262;2023-03-05T00:47:45;24.07;;;16.47;;
9461;SDS011;4769;42.660;23.262;2023-03-05T00:50:11;28.33;;;18.17;;
9461;SDS011;4769;42.660;23.262;2023-03-05T00:52:36;32.53;;;19.10;;
9461;SDS011;4769;42.660;23.262;2023-03-05T00:55:02;23.23;;;17.07;;
9461;SDS011;4769;42.660;23.262;2023-03-05T00:57:29;25.47;;;18.23;;
9461;SDS011;4769;42.660;23.262;2023-03-05T00:59:54;24.23;;;17.57;;
9461;SDS011;4769;42.660;23.262;2023-03-05T01:02:22;22.70;;;16.47;;
9461;SDS011;4769;42.660;23.262;2023-03-05T01:04:48;23.87;;;15.63;;
9461;SDS011;4769;42.660;23.262;2023-03-05T01:07:14;25.53;;;17.47;;
9461;SDS011;4769;42.660;23.262;2023-03-05T01:09:39;23.27;;;15.90;;
9461;SDS011;4769;42.660;23.262;2023-03-05T01:12:05;25.57;;;17.13;;
9461;SDS011;4769;42.660;23.262;2023-03-05T01:14:32;22.10;;;15.43;;
9461;SDS011;4769;42.660;23.262;2023-03-05T01:16:57;27.73;;;17.10;;
9461;SDS011;4769;42.660;23.262;2023-03-05T01:19:26;22.87;;;16.80;;
9461;SDS011;4769;42.660;23.262;2023-03-05T01:21:51;22.20;;;15.47;;
9461;SDS011;4769;42.660;23.262;2023-03-05T01:24:17;20.40;;;15.40;;
9461;SDS011;4769;42.660;23.262;2023-03-05T01:26:43;22.53;;;15.67;;
9461;SDS011;4769;42.660;23.262;2023-03-05T01:29:08;23.40;;;15.23;;
9461;SDS011;4769;42.660;23.262;2023-03-05T01:31:34;21.90;;;15.53;;
9461;SDS011;4769;42.660;23.262;2023-03-05T01:34:00;25.43;;;16.23;;
9461;SDS011;4769;42.660;23.262;2023-03-05T01:36:28;23.50;;;16.27;;
9461;SDS011;4769;42.660;23.262;2023-03-05T01:38:54;25.50;;;15.90;;
9461;SDS011;4769;42.660;23.262;2023-03-05T01:41:19;25.10;;;16.90;;
9461;SDS011;4769;42.660;23.262;2023-03-05T01:43:46;24.07;;;15.27;;
9461;SDS011;4769;42.660;23.262;2023-03-05T01:49:08;22.77;;;16.27;;
9461;SDS011;4769;42.660;23.262;2023-03-05T01:51:42;24.83;;;15.63;;
9461;SDS011;4769;42.660;23.262;2023-03-05T01:54:14;24.70;;;14.70;;
9461;SDS011;4769;42.660;23.262;2023-03-05T01:56:43;21.37;;;14.83;;
9461;SDS011;4769;42.660;23.262;2023-03-05T01:59:10;25.10;;;13.90;;
9461;SDS011;4769;42.660;23.262;2023-03-05T02:01:38;19.67;;;14.97;;
9461;SDS011;4769;42.660;23.262;2023-03-05T02:04:07;23.13;;;16.23;;
9461;SDS011;4769;42.660;23.262;2023-03-05T02:06:35;23.70;;;14.83;;
9461;SDS011;4769;42.660;23.262;2023-03-05T02:09:05;21.57;;;15.70;;
9461;SDS011;4769;42.660;23.262;2023-03-05T02:11:31;25.00;;;16.60;;
9461;SDS011;4769;42.660;23.262;2023-03-05T02:13:57;22.33;;;15.30;;
9461;SDS011;4769;42.660;23.262;2023-03-05T02:16:23;24.23;;;16.37;;
9461;SDS011;4769;42.660;23.262;2023-03-05T02:18:49;21.43;;;15.93;;
9461;SDS011;4769;42.660;23.262;2023-03-05T02:21:18;22.50;;;15.87;;
9461;SDS011;4769;42.660;23.262;2023-03-05T02:23:51;22.13;;;15.97;;
9461;SDS011;4769;42.660;23.262;2023-03-05T02:26:17;22.33;;;15.50;;
9461;SDS011;4769;42.660;23.262;2023-03-05T02:28:43;23.33;;;15.53;;
9461;SDS011;4769;42.660;23.262;2023-03-05T02:31:14;21.93;;;16.07;;
9461;SDS011;4769;42.660;23.262;2023-03-05T02:33:41;21.03;;;15.40;;
9461;SDS011;4769;42.660;23.262;2023-03-05T02:36:07;24.43;;;15.70;;
9461;SDS011;4769;42.660;23.262;2023-03-05T02:38:36;20.37;;;15.33;;
9461;SDS011;4769;42.660;23.262;2023-03-05T02:41:02;21.97;;;14.57;;
9461;SDS011;4769;42.660;23.262;2023-03-05T02:43:28;19.60;;;14.43;;
9461;SDS011;4769;42.660;23.262;2023-03-05T02:45:54;20.43;;;15.93;;
9461;SDS011;4769;42.660;23.262;2023-03-05T02:48:20;24.40;;;17.13;;
9461;SDS011;4769;42.660;23.262;2023-03-05T02:50:45;23.67;;;15.87;;
9461;SDS011;4769;42.660;23.262;2023-03-05T02:53:12;24.40;;;16.13;;
9461;SDS011;4769;42.660;23.262;2023-03-05T02:55:40;25.40;;;15.90;;
9461;SDS011;4769;42.660;23.262;2023-03-05T02:58:06;23.60;;;16.03;;
9461;SDS011;4769;42.660;23.262;2023-03-05T03:00:31;23.23;;;15.57;;
9461;SDS011;4769;42.660;23.262;2023-03-05T03:02:57;24.77;;;17.33;;
9461;SDS011;4769;42.660;23.262;2023-03-05T03:05:23;23.53;;;15.97;;
9461;SDS011;4769;42.660;23.262;2023-03-05T03:07:49;27.93;;;17.60;;
9461;SDS011;4769;42.660;23.262;2023-03-05T03:10:16;24.50;;;16.63;;
9461;SDS011;4769;42.660;23.262;2023-03-05T03:12:45;26.40;;;17.83;;
9461;SDS011;4769;42.660;23.262;2023-03-05T03:15:12;22.30;;;16.20;;
9461;SDS011;4769;42.660;23.262;2023-03-05T03:17:40;29.27;;;18.00;;
9461;SDS011;4769;42.660;23.262;2023-03-05T03:20:10;25.50;;;17.53;;
9461;SDS011;4769;42.660;23.262;2023-03-05T03:22:40;26.23;;;16.23;;
9461;SDS011;4769;42.660;23.262;2023-03-05T03:25:07;24.13;;;16.43;;
9461;SDS011;4769;42.660;23.262;2023-03-05T03:27:33;25.07;;;17.03;;
9461;SDS011;4769;42.660;23.262;2023-03-05T03:30:01;27.97;;;18.30;;
9461;SDS011;4769;42.660;23.262;2023-03-05T03:32:28;28.20;;;16.43;;
9461;SDS011;4769;42.660;23.262;2023-03-05T03:34:54;27.20;;;18.83;;
9461;SDS011;4769;42.660;23.262;2023-03-05T03:37:20;28.53;;;18.60;;
9461;SDS011;4769;42.660;23.262;2023-03-05T03:39:45;27.97;;;18.77;;
9461;SDS011;4769;42.660;23.262;2023-03-05T03:42:11;27.47;;;18.93;;
9461;SDS011;4769;42.660;23.262;2023-03-05T03:44:37;32.43;;;20.00;;
9461;SDS011;4769;42.660;23.262;2023-03-05T03:47:06;33.20;;;19.67;;
9461;SDS011;4769;42.660;23.262;2023-03-05T03:49:31;34.40;;;20.47;;
9461;SDS011;4769;42.660;23.262;2023-03-05T03:51:57;26.70;;;18.23;;
9461;SDS011;4769;42.660;23.262;2023-03-05T03:54:22;31.10;;;19.50;;
9461;SDS011;4769;42.660;23.262;2023-03-05T03:56:48;29.30;;;19.37;;
9461;SDS011;4769;42.660;23.262;2023-03-05T03:59:14;27.10;;;18.23;;
9461;SDS011;4769;42.660;23.262;2023-03-05T04:01:40;28.70;;;19.00;;
9461;SDS011;4769;42.660;23.262;2023-03-05T04:04:09;28.10;;;19.70;;
9461;SDS011;4769;42.660;23.262;2023-03-05T04:06:36;27.93;;;19.13;;
9461;SDS011;4769;42.660;23.262;2023-03-05T04:09:02;33.93;;;20.70;;
9461;SDS011;4769;42.660;23.262;2023-03-05T04:11:28;33.90;;;20.10;;
9461;SDS011;4769;42.660;23.262;2023-03-05T04:13:53;31.63;;;19.80;;
9461;SDS011;4769;42.660;23.262;2023-03-05T04:16:19;32.17;;;19.90;;
9461;SDS011;4769;42.660;23.262;2023-03-05T04:18:45;30.27;;;19.47;;
9461;SDS011;4769;42.660;23.262;2023-03-05T04:21:14;32.80;;;18.93;;
9461;SDS011;4769;42.660;23.262;2023-03-05T04:23:39;29.23;;;18.73;;
9461;SDS011;4769;42.660;23.262;2023-03-05T04:26:05;28.80;;;19.83;;
9461;SDS011;4769;42.660;23.262;2023-03-05T04:28:31;32.13;;;21.07;;
9461;SDS011;4769;42.660;23.262;2023-03-05T04:31:00;35.07;;;22.37;;
9461;SDS011;4769;42.660;23.262;2023-03-05T04:33:25;32.20;;;19.23;;
9461;SDS011;4769;42.660;23.262;2023-03-05T04:35:51;31.60;;;19.77;;
9461;SDS011;4769;42.660;23.262;2023-03-05T04:38:20;31.23;;;21.03;;
9461;SDS011;4769;42.660;23.262;2023-03-05T04:40:46;33.73;;;20.70;;
9461;SDS011;4769;42.660;23.262;2023-03-05T04:43:12;28.83;;;19.93;;
9461;SDS011;4769;42.660;23.262;2023-03-05T04:45:38;30.43;;;19.17;;
9461;SDS011;4769;42.660;23.262;2023-03-05T04:48:05;27.47;;;18.77;;
9461;SDS011;4769;42.660;23.262;2023-03-05T04:50:31;33.00;;;20.93;;
9461;SDS011;4769;42.660;23.262;2023-03-05T04:52:56;34.30;;;20.70;;
9461;SDS011;4769;42.660;23.262;2023-03-05T04:55:25;28.20;;;19.10;;
9461;SDS011;4769;42.660;23.262;2023-03-05T04:57:51;29.03;;;18.53;;
9461;SDS011;4769;42.660;23.262;2023-03-05T05:00:20;31.47;;;19.40;;
9461;SDS011;4769;42.660;23.262;2023-03-05T05:02:46;27.70;;;18.63;;
9461;SDS011;4769;42.660;23.262;2023-03-05T05:05:15;28.97;;;18.47;;
9461;SDS011;4769;42.660;23.262;2023-03-05T05:07:42;30.30;;;18.47;;
9461;SDS011;4769;42.660;23.262;2023-03-05T05:10:09;29.83;;;18.83;;
9461;SDS011;4769;42.660;23.262;2023-03-05T05:12:38;30.70;;;19.90;;
9461;SDS011;4769;42.660;23.262;2023-03-05T05:15:05;31.00;;;18.43;;
9461;SDS011;4769;42.660;23.262;2023-03-05T05:17:33;31.53;;;20.13;;
9461;SDS011;4769;42.660;23.262;2023-03-05T05:19:59;26.43;;;18.03;;
9461;SDS011;4769;42.660;23.262;2023-03-05T05:22:26;27.37;;;17.87;;
9461;SDS011;4769;42.660;23.262;2023-03-05T05:24:52;28.33;;;18.13;;
9461;SDS011;4769;42.660;23.262;2023-03-05T05:27:18;26.60;;;16.80;;
9461;SDS011;4769;42.660;23.262;2023-03-05T05:29:46;27.10;;;18.37;;
9461;SDS011;4769;42.660;23.262;2023-03-05T05:32:12;25.83;;;17.53;;
9461;SDS011;4769;42.660;23.262;2023-03-05T05:34:37;29.77;;;18.60;;
9461;SDS011;4769;42.660;23.262;2023-03-05T05:37:03;27.50;;;17.90;;
9461;SDS011;4769;42.660;23.262;2023-03-05T05:39:29;26.03;;;17.23;;
9461;SDS011;4769;42.660;23.262;2023-03-05T05:41:55;25.30;;;17.17;;
9461;SDS011;4769;42.660;23.262;2023-03-05T05:44:20;24.80;;;17.17;;
9461;SDS011;4769;42.660;23.262;2023-03-05T05:46:49;25.73;;;16.47;;
9461;SDS011;4769;42.660;23.262;2023-03-05T05:49:15;24.93;;;15.50;;
9461;SDS011;4769;42.660;23.262;2023-03-05T05:51:41;24.50;;;16.70;;
9461;SDS011;4769;42.660;23.262;2023-03-05T05:54:06;22.00;;;15.43;;
9461;SDS011;4769;42.660;23.262;2023-03-05T05:56:32;22.97;;;14.97;;
9461;SDS011;4769;42.660;23.262;2023-03-05T05:58:58;22.47;;;14.67;;
9461;SDS011;4769;42.660;23.262;2023-03-05T06:01:24;24.50;;;15.13;;
9461;SDS011;4769;42.660;23.262;2023-03-05T06:03:54;24.43;;;15.17;;
9461;SDS011;4769;42.660;23.262;2023-03-05T06:06:20;23.27;;;14.00;;
9461;SDS011;4769;42.660;23.262;2023-03-05T06:08:47;24.63;;;13.77;;
9461;SDS011;4769;42.660;23.262;2023-03-05T06:11:14;24.00;;;14.30;;
9461;SDS011;4769;42.660;23.262;2023-03-05T06:13:40;24.67;;;15.57;;
9461;SDS011;4769;42.660;23.262;2023-03-05T06:16:06;24.80;;;15.23;;
9461;SDS011;4769;42.660;23.262;2023-03-05T06:18:34;18.03;;;12.33;;
9461;SDS011;4769;42.660;23.262;2023-03-05T06:21:03;21.30;;;13.30;;
9461;SDS011;4769;42.660;23.262;2023-03-05T06:23:30;18.97;;;13.70;;
9461;SDS011;4769;42.660;23.262;2023-03-05T06:25:57;21.63;;;13.23;;
9461;SDS011;4769;42.660;23.262;2023-03-05T06:28:24;22.20;;;13.33;;
9461;SDS011;4769;42.660;23.262;2023-03-05T06:30:50;25.23;;;13.47;;
9461;SDS011;4769;42.660;23.262;2023-03-05T06:33:24;24.03;;;13.47;;
9461;SDS011;4769;42.660;23.262;2023-03-05T06:35:49;21.43;;;13.47;;
9461;SDS011;4769;42.660;23.262;2023-03-05T06:38:18;23.57;;;13.13;;
9461;SDS011;4769;42.660;23.262;2023-03-05T06:40:43;23.93;;;14.20;;
9461;SDS011;4769;42.660;23.262;2023-03-05T06:43:09;20.53;;;14.63;;
9461;SDS011;4769;42.660;23.262;2023-03-05T06:45:34;19.53;;;13.40;;
9461;SDS011;4769;42.660;23.262;2023-03-05T06:48:00;21.47;;;12.33;;
9461;SDS011;4769;42.660;23.262;2023-03-05T06:50:26;20.23;;;13.30;;
9461;SDS011;4769;42.660;23.262;2023-03-05T06:52:52;26.33;;;14.50;;
9461;SDS011;4769;42.660;23.262;2023-03-05T06:55:20;21.27;;;13.90;;
9461;SDS011;4769;42.660;23.262;2023-03-05T06:57:46;24.97;;;14.63;;
9461;SDS011;4769;42.660;23.262;2023-03-05T07:00:12;22.63;;;15.13;;
9461;SDS011;4769;42.660;23.262;2023-03-05T07:02:38;22.73;;;14.27;;
9461;SDS011;4769;42.660;23.262;2023-03-05T07:05:05;22.00;;;13.47;;
9461;SDS011;4769;42.660;23.262;2023-03-05T07:07:31;23.53;;;15.03;;
9461;SDS011;4769;42.660;23.262;2023-03-05T07:09:57;24.93;;;15.17;;
9461;SDS011;4769;42.660;23.262;2023-03-05T07:12:25;22.43;;;14.63;;
9461;SDS011;4769;42.660;23.262;2023-03-05T07:14:51;23.33;;;15.37;;
9461;SDS011;4769;42.660;23.262;2023-03-05T07:17:17;24.10;;;15.87;;
9461;SDS011;4769;42.660;23.262;2023-03-05T07:19:42;24.07;;;16.03;;
9461;SDS011;4769;42.660;23.262;2023-03-05T07:22:08;23.07;;;16.43;;
9461;SDS011;4769;42.660;23.262;2023-03-05T07:24:34;27.23;;;17.13;;
9461;SDS011;4769;42.660;23.262;2023-03-05T07:27:02;27.97;;;16.23;;
9461;SDS011;4769;42.660;23.262;2023-03-05T07:29:31;24.40;;;16.30;;
9461;SDS011;4769;42.660;23.262;2023-03-05T07:31:56;27.23;;;17.70;;
9461;SDS011;4769;42.660;23.262;2023-03-05T07:34:22;25.73;;;16.97;;
9461;SDS011;4769;42.660;23.262;2023-03-05T07:36:48;27.73;;;17.33;;
9461;SDS011;4769;42.660;23.262;2023-03-05T07:39:15;26.20;;;16.47;;
9461;SDS011;4769;42.660;23.262;2023-03-05T07:41:41;35.40;;;19.40;;
9461;SDS011;4769;42.660;23.262;2023-03-05T07:44:06;28.23;;;19.20;;
9461;SDS011;4769;42.660;23.262;2023-03-05T07:46:36;29.73;;;19.43;;
9461;SDS011;4769;42.660;23.262;2023-03-05T07:49:02;29.30;;;20.20;;
9461;SDS011;4769;42.660;23.262;2023-03-05T07:51:28;28.40;;;18.90;;
9461;SDS011;4769;42.660;23.262;2023-03-05T07:53:55;30.60;;;19.67;;
9461;SDS011;4769;42.660;23.262;2023-03-05T07:56:22;27.60;;;19.33;;
9461;SDS011;4769;42.660;23.262;2023-03-05T07:58:48;27.73;;;17.17;;
9461;SDS011;4769;42.660;23.262;2023-03-05T08:01:14;28.47;;;19.33;;
9461;SDS011;4769;42.660;23.262;2023-03-05T08:03:42;28.53;;;19.27;;
9461;SDS011;4769;42.660;23.262;2023-03-05T08:06:09;30.27;;;19.63;;
9461;SDS011;4769;42.660;23.262;2023-03-05T08:08:35;31.27;;;20.03;;
9461;SDS011;4769;42.660;23.262;2023-03-05T08:11:02;29.50;;;19.63;;
9461;SDS011;4769;42.660;23.262;2023-03-05T08:13:29;28.40;;;20.00;;
9461;SDS011;4769;42.660;23.262;2023-03-05T08:15:54;30.93;;;20.97;;
9461;SDS011;4769;42.660;23.262;2023-03-05T08:18:20;28.87;;;20.27;;
9461;SDS011;4769;42.660;23.262;2023-03-05T08:20:48;30.43;;;19.67;;
9461;SDS011;4769;42.660;23.262;2023-03-05T08:23:14;29.03;;;18.87;;
9461;SDS011;4769;42.660;23.262;2023-03-05T08:25:39;27.13;;;20.07;;
9461;SDS011;4769;42.660;23.262;2023-03-05T08:28:05;28.20;;;20.13;;
9461;SDS011;4769;42.660;23.262;2023-03-05T08:30:31;29.63;;;19.53;;
9461;SDS011;4769;42.660;23.262;2023-03-05T08:32:56;29.80;;;19.60;;
9461;SDS011;4769;42.660;23.262;2023-03-05T08:35:22;33.40;;;20.87;;
9461;SDS011;4769;42.660;23.262;2023-03-05T08:37:51;31.77;;;21.30;;
9461;SDS011;4769;42.660;23.262;2023-03-05T08:40:16;29.30;;;19.47;;
9461;SDS011;4769;42.660;23.262;2023-03-05T08:42:42;28.10;;;19.63;;
9461;SDS011;4769;42.660;23.262;2023-03-05T08:45:09;27.57;;;18.83;;
9461;SDS011;4769;42.660;23.262;2023-03-05T08:47:35;28.67;;;19.30;;
9461;SDS011;4769;42.660;23.262;2023-03-05T08:50:01;29.23;;;19.00;;
9461;SDS011;4769;42.660;23.262;2023-03-05T08:52:27;27.13;;;19.03;;
9461;SDS011;4769;42.660;23.262;2023-03-05T08:54:55;30.70;;;18.73;;
9461;SDS011;4769;42.660;23.262;2023-03-05T08:57:21;28.30;;;19.33;;
9461;SDS011;4769;42.660;23.262;2023-03-05T08:59:46;29.17;;;20.07;;
9461;SDS011;4769;42.660;23.262;2023-03-05T09:02:12;25.53;;;17.80;;
9461;SDS011;4769;42.660;23.262;2023-03-05T09:04:38;30.30;;;19.73;;
9461;SDS011;4769;42.660;23.262;2023-03-05T09:07:04;26.73;;;18.63;;
9461;SDS011;4769;42.660;23.262;2023-03-05T09:09:30;26.17;;;19.23;;
9461;SDS011;4769;42.660;23.262;2023-03-05T09:11:59;28.10;;;18.90;;
9461;SDS011;4769;42.660;23.262;2023-03-05T09:14:25;26.00;;;18.03;;
9461;SDS011;4769;42.660;23.262;2023-03-05T09:16:51;27.63;;;18.87;;
9461;SDS011;4769;42.660;23.262;2023-03-05T09:19:16;22.50;;;17.40;;
9461;SDS011;4769;42.660;23.262;2023-03-05T09:21:42;24.23;;;16.80;;
9461;SDS011;4769;42.660;23.262;2023-03-05T09:24:08;23.57;;;17.77;;
9461;SDS011;4769;42.660;23.262;2023-03-05T09:26:33;23.33;;;17.83;;
9461;SDS011;4769;42.660;23.262;2023-03-05T09:29:02;22.20;;;15.53;;
9461;SDS011;4769;42.660;23.262;2023-03-05T09:31:27;26.83;;;17.73;;
9461;SDS011;4769;42.660;23.262;2023-03-05T09:33:53;24.73;;;18.10;;
9461;SDS011;4769;42.660;23.262;2023-03-05T09:36:19;26.20;;;17.37;;
9461;SDS011;4769;42.660;23.262;2023-03-05T09:38:46;24.30;;;17.50;;
9461;SDS011;4769;42.660;23.262;2023-03-05T09:41:14;25.60;;;17.73;;
9461;SDS011;4769;42.660;23.262;2023-03-05T09:43:49;24.63;;;17.80;;
9461;SDS011;4769;42.660;23.262;2023-03-05T09:46:28;25.93;;;19.23;;
9461;SDS011;4769;42.660;23.262;2023-03-05T09:49:05;26.27;;;17.90;;
9461;SDS011;4769;42.660;23.262;2023-03-05T09:51:39;25.37;;;17.93;;
9461;SDS011;4769;42.660;23.262;2023-03-05T09:54:09;26.27;;;17.30;;
9461;SDS011;4769;42.660;23.262;2023-03-05T09:56:38;24.67;;;17.63;;
9461;SDS011;4769;42.660;23.262;2023-03-05T09:59:12;24.90;;;18.47;;
9461;SDS011;4769;42.660;23.262;2023-03-05T10:01:46;24.13;;;17.30;;
9461;SDS011;4769;42.660;23.262;2023-03-05T10:04:17;25.93;;;17.20;;
9461;SDS011;4769;42.660;23.262;2023-03-05T10:06:49;22.23;;;16.77;;
9461;SDS011;4769;42.660;23.262;2023-03-05T10:09:22;23.87;;;17.43;;
9461;SDS011;4769;42.660;23.262;2023-03-05T10:11:58;19.23;;;13.87;;
9461;SDS011;4769;42.660;23.262;2023-03-05T10:14:28;19.83;;;15.20;;
9461;SDS011;4769;42.660;23.262;2023-03-05T10:17:20;21.70;;;14.60;;
9461;SDS011;4769;42.660;23.262;2023-03-05T10:20:06;18.20;;;14.40;;
9461;SDS011;4769;42.660;23.262;2023-03-05T10:22:51;26.03;;;14.83;;
9461;SDS011;4769;42.660;23.262;2023-03-05T10:25:30;22.23;;;15.53;;
9461;SDS011;4769;42.660;23.262;2023-03-05T10:28:12;25.77;;;14.97;;
9461;SDS011;4769;42.660;23.262;2023-03-05T10:30:50;19.50;;;14.50;;
9461;SDS011;4769;42.660;23.262;2023-03-05T10:33:31;17.97;;;13.80;;
9461;SDS011;4769;42.660;23.262;2023-03-05T10:36:09;17.57;;;13.23;;
9461;SDS011;4769;42.660;23.262;2023-03-05T10:38:52;20.73;;;13.57;;
9461;SDS011;4769;42.660;23.262;2023-03-05T10:41:32;19.13;;;14.07;;
9461;SDS011;4769;42.660;23.262;2023-03-05T10:44:08;20.97;;;15.37;;
9461;SDS011;4769;42.660;23.262;2023-03-05T10:46:39;20.13;;;15.17;;
9461;SDS011;4769;42.660;23.262;2023-03-05T10:49:11;21.97;;;15.07;;
9461;SDS011;4769;42.660;23.262;2023-03-05T10:51:43;18.50;;;13.90;;
9461;SDS011;4769;42.660;23.262;2023-03-05T10:54:17;16.90;;;13.43;;
9461;SDS011;4769;42.660;23.262;2023-03-05T10:56:47;17.70;;;12.80;;
9461;SDS011;4769;42.660;23.262;2023-03-05T10:59:12;17.53;;;13.80;;
9461;SDS011;4769;42.660;23.262;2023-03-05T11:01:38;15.90;;;11.83;;
9461;SDS011;4769;42.660;23.262;2023-03-05T11:04:04;18.07;;;13.30;;
9461;SDS011;4769;42.660;23.262;2023-03-05T11:06:34;17.17;;;14.03;;
9461;SDS011;4769;42.660;23.262;2023-03-05T11:09:14;17.60;;;14.47;;
9461;SDS011;4769;42.660;23.262;2023-03-05T11:11:42;18.40;;;12.67;;
9461;SDS011;4769;42.660;23.262;2023-03-05T11:14:21;16.50;;;12.80;;
9461;SDS011;4769;42.660;23.262;2023-03-05T11:16:48;19.07;;;13.23;;
9461;SDS011;4769;42.660;23.262;2023-03-05T11:19:15;18.43;;;13.93;;
9461;SDS011;4769;42.660;23.262;2023-03-05T11:21:46;16.73;;;12.70;;
9461;SDS011;4769;42.660;23.262;2023-03-05T11:24:28;19.70;;;15.17;;
9461;SDS011;4769;42.660;23.262;2023-03-05T11:26:55;28.83;;;19.83;;
9461;SDS011;4769;42.660;23.262;2023-03-05T11:29:23;23.57;;;15.70;;
9461;SDS011;4769;42.660;23.262;2023-03-05T11:31:51;22.13;;;16.30;;
9461;SDS011;4769;42.660;23.262;2023-03-05T11:34:22;20.60;;;15.17;;
9461;SDS011;4769;42.660;23.262;2023-03-05T11:37:04;20.60;;;14.17;;
9461;SDS011;4769;42.660;23.262;2023-03-05T11:39:31;23.83;;;17.80;;
9461;SDS011;4769;42.660;23.262;2023-03-05T11:42:00;20.97;;;15.57;;
9461;SDS011;4769;42.660;23.262;2023-03-05T11:44:31;17.87;;;14.10;;
9461;SDS011;4769;42.660;23.262;2023-03-05T11:47:00;18.90;;;14.13;;
9461;SDS011;4769;42.660;23.262;2023-03-05T11:49:29;20.13;;;16.13;;
9461;SDS011;4769;42.660;23.262;2023-03-05T11:51:57;23.67;;;15.33;;
9461;SDS011;4769;42.660;23.262;2023-03-05T11:54:32;22.97;;;15.67;;
9461;SDS011;4769;42.660;23.262;2023-03-05T11:57:04;27.43;;;18.83;;
9461;SDS011;4769;42.660;23.262;2023-03-05T11:59:31;29.17;;;19.10;;
9461;SDS011;4769;42.660;23.262;2023-03-05T12:02:01;38.83;;;26.07;;
9461;SDS011;4769;42.660;23.262;2023-03-05T12:04:26;23.10;;;15.93;;
9461;SDS011;4769;42.660;23.262;2023-03-05T12:06:56;80.87;;;43.37;;
9461;SDS011;4769;42.660;23.262;2023-03-05T12:09:28;38.03;;;25.20;;
9461;SDS011;4769;42.660;23.262;2023-03-05T12:12:04;30.87;;;20.40;;
9461;SDS011;4769;42.660;23.262;2023-03-05T12:14:38;26.57;;;19.17;;
9461;SDS011;4769;42.660;23.262;2023-03-05T12:17:11;19.83;;;15.50;;
9461;SDS011;4769;42.660;23.262;2023-03-05T12:19:46;31.53;;;21.43;;
9461;SDS011;4769;42.660;23.262;2023-03-05T12:22:19;20.73;;;16.93;;
9461;SDS011;4769;42.660;23.262;2023-03-05T12:24:49;21.13;;;16.33;;
9461;SDS011;4769;42.660;23.262;2023-03-05T12:27:16;21.93;;;14.47;;
9461;SDS011;4769;42.660;23.262;2023-03-05T12:29:56;18.80;;;13.48;;
9461;SDS011;4769;42.660;23.262;2023-03-05T12:35:24;21.03;;;17.07;;
9461;SDS011;4769;42.660;23.262;2023-03-05T12:37:56;21.07;;;14.10;;
9461;SDS011;4769;42.660;23.262;2023-03-05T12:40:40;20.93;;;16.20;;
9461;SDS011;4769;42.660;23.262;2023-03-05T12:43:12;20.73;;;15.50;;
9461;SDS011;4769;42.660;23.262;2023-03-05T12:45:52;19.90;;;16.03;;
9461;SDS011;4769;42.660;23.262;2023-03-05T12:48:47;17.88;;;14.02;;
9461;SDS011;4769;42.660;23.262;2023-03-05T12:51:14;22.10;;;15.07;;
9461;SDS011;4769;42.660;23.262;2023-03-05T12:53:52;14.63;;;11.37;;
9461;SDS011;4769;42.660;23.262;2023-03-05T12:56:21;22.47;;;14.23;;
9461;SDS011;4769;42.660;23.262;2023-03-05T12:58:54;14.83;;;11.33;;
9461;SDS011;4769;42.660;23.262;2023-03-05T13:01:28;15.13;;;12.27;;
9461;SDS011;4769;42.660;23.262;2023-03-05T13:04:00;15.90;;;11.50;;
9461;SDS011;4769;42.660;23.262;2023-03-05T13:06:29;13.47;;;10.57;;
9461;SDS011;4769;42.660;23.262;2023-03-05T13:08:58;15.00;;;11.60;;
9461;SDS011;4769;42.660;23.262;2023-03-05T13:11:29;15.90;;;10.60;;
9461;SDS011;4769;42.660;23.262;2023-03-05T13:13:57;12.37;;;9.70;;
9461;SDS011;4769;42.660;23.262;2023-03-05T13:16:25;14.00;;;10.37;;
9461;SDS011;4769;42.660;23.262;2023-03-05T13:18:52;12.13;;;9.97;;
9461;SDS011;4769;42.660;23.262;2023-03-05T13:21:20;12.30;;;10.57;;
9461;SDS011;4769;42.660;23.262;2023-03-05T13:23:50;16.17;;;10.87;;
9461;SDS011;4769;42.660;23.262;2023-03-05T13:26:16;19.27;;;12.27;;
9461;SDS011;4769;42.660;23.262;2023-03-05T13:28:52;20.93;;;13.60;;
9461;SDS011;4769;42.660;23.262;2023-03-05T13:31:29;19.63;;;14.00;;
9461;SDS011;4769;42.660;23.262;2023-03-05T13:33:56;18.27;;;13.43;;
9461;SDS011;4769;42.660;23.262;2023-03-05T13:36:29;22.23;;;13.60;;
9461;SDS011;4769;42.660;23.262;2023-03-05T13:38:55;18.07;;;14.00;;
9461;SDS011;4769;42.660;23.262;2023-03-05T13:41:22;19.07;;;13.83;;
9461;SDS011;4769;42.660;23.262;2023-03-05T13:43:52;20.83;;;13.63;;
9461;SDS011;4769;42.660;23.262;2023-03-05T13:46:23;20.70;;;14.00;;
9461;SDS011;4769;42.660;23.262;2023-03-05T13:48:49;19.97;;;14.37;;
9461;SDS011;4769;42.660;23.262;2023-03-05T13:51:15;17.80;;;13.63;;
9461;SDS011;4769;42.660;23.262;2023-03-05T13:53:41;17.63;;;13.33;;
9461;SDS011;4769;42.660;23.262;2023-03-05T13:56:11;17.70;;;13.10;;
9461;SDS011;4769;42.660;23.262;2023-03-05T13:58:46;18.77;;;13.53;;
9461;SDS011;4769;42.660;23.262;2023-03-05T14:01:17;16.90;;;12.80;;
9461;SDS011;4769;42.660;23.262;2023-03-05T14:03:49;20.20;;;13.43;;
9461;SDS011;4769;42.660;23.262;2023-03-05T14:06:17;22.47;;;13.63;;
9461;SDS011;4769;42.660;23.262;2023-03-05T14:08:47;17.30;;;12.23;;
9461;SDS011;4769;42.660;23.262;2023-03-05T14:11:15;19.27;;;12.00;;
9461;SDS011;4769;42.660;23.262;2023-03-05T14:13:41;17.17;;;11.97;;
9461;SDS011;4769;42.660;23.262;2023-03-05T14:16:08;20.23;;;12.73;;
9461;SDS011;4769;42.660;23.262;2023-03-05T14:18:40;17.50;;;13.40;;
9461;SDS011;4769;42.660;23.262;2023-03-05T14:21:17;19.87;;;12.90;;
9461;SDS011;4769;42.660;23.262;2023-03-05T14:23:43;23.23;;;15.00;;
9461;SDS011;4769;42.660;23.262;2023-03-05T14:26:15;19.33;;;14.33;;
9461;SDS011;4769;42.660;23.262;2023-03-05T14:28:51;22.53;;;14.13;;
9461;SDS011;4769;42.660;23.262;2023-03-05T14:31:18;23.03;;;14.80;;
9461;SDS011;4769;42.660;23.262;2023-03-05T14:33:47;23.50;;;15.43;;
9461;SDS011;4769;42.660;23.262;2023-03-05T14:36:19;23.80;;;14.97;;
9461;SDS011;4769;42.660;23.262;2023-03-05T14:38:47;20.93;;;15.33;;
9461;SDS011;4769;42.660;23.262;2023-03-05T14:41:19;19.43;;;14.90;;
9461;SDS011;4769;42.660;23.262;2023-03-05T14:43:52;17.30;;;13.53;;
9461;SDS011;4769;42.660;23.262;2023-03-05T14:46:18;22.23;;;14.90;;
9461;SDS011;4769;42.660;23.262;2023-03-05T14:48:46;20.97;;;14.50;;